sensor_id;sensor_type;location;lat;lon;timestamp;temperature;humidity
10964;DHT22;5534;48.784;9.190;2023-09-19T00:00:37;20.00;99.90
10964;DHT22;5534;48.784;9.190;2023-09-19T00:03:03;20.10;99.90
10964;DHT22;5534;48.784;9.190;2023-09-19T00:05:35;20.10;99.90
10964;DHT22;5534;48.784;9.190;2023-09-19T00:08:01;20.10;99.90
10964;DHT22;5534;48.784;9.190;2023-09-19T00:10:31;20.10;99.90
10964;DHT22;5534;48.784;9.190;2023-09-19T00:12:58;20.00;99.90
10964;DHT22;5534;48.784;9.190;2023-09-19T00:15:26;20.00;99.90
10964;DHT22;5534;48.784;9.190;2023-09-19T00:17:56;20.00;99.90
10964;DHT22;5534;48.784;9.190;2023-09-19T00:20:22;19.90;99.90
10964;DHT22;5534;48.784;9.190;2023-09-19T00:22:50;19.90;99.90
10964;DHT22;5534;48.784;9.190;2023-09-19T00:25:19;19.90;99.90
10964;DHT22;5534;48.784;9.190;2023-09-19T00:27:49;19.90;99.90
10964;DHT22;5534;48.784;9.190;2023-09-19T00:30:17;19.90;99.90
10964;DHT22;5534;48.784;9.190;2023-09-19T00:32:50;19.90;99.90
10964;DHT22;5534;48.784;9.190;2023-09-19T00:35:20;19.70;99.90
10964;DHT22;5534;48.784;9.190;2023-09-19T00:37:46;19.60;99.90
10964;DHT22;5534;48.784;9.190;2023-09-19T00:40:12;19.70;99.90
10964;DHT22;5534;48.784;9.190;2023-09-19T00:42:39;19.80;99.90
10964;DHT22;5534;48.784;9.190;2023-09-19T00:45:07;20.00;99.90
10964;DHT22;5534;48.784;9.190;2023-09-19T00:47:35;20.00;99.90
10964;DHT22;5534;48.784;9.190;2023-09-19T00:50:02;19.90;99.90
10964;DHT22;5534;48.784;9.190;2023-09-19T00:52:28;19.80;99.90
10964;DHT22;5534;48.784;9.190;2023-09-19T00:54:54;19.80;99.90
10964;DHT22;5534;48.784;9.190;2023-09-19T00:57:20;19.40;99.90
10964;DHT22;5534;48.784;9.190;2023-09-19T00:59:49;19.40;99.90
10964;DHT22;5534;48.784;9.190;2023-09-19T01:02:16;19.50;99.90
10964;DHT22;5534;48.784;9.190;2023-09-19T01:04:42;19.60;99.90
10964;DHT22;5534;48.784;9.190;2023-09-19T01:07:08;19.60;99.90
10964;DHT22;5534;48.784;9.190;2023-09-19T01:09:35;19.80;99.90
10964;DHT22;5534;48.784;9.190;2023-09-19T01:12:02;19.80;99.90
10964;DHT22;5534;48.784;9.190;2023-09-19T01:14:52;19.70;99.90
10964;DHT22;5534;48.784;9.190;2023-09-19T01:17:29;19.70;99.90
10964;DHT22;5534;48.784;9.190;2023-09-19T01:23:29;19.70;99.90
10964;DHT22;5534;48.784;9.190;2023-09-19T01:28:39;19.80;99.90
10964;DHT22;5534;48.784;9.190;2023-09-19T01:31:10;19.70;99.90
10964;DHT22;5534;48.784;9.190;2023-09-19T01:33:57;19.80;99.90
10964;DHT22;5534;48.784;9.190;2023-09-19T01:36:35;19.70;99.90
10964;DHT22;5534;48.784;9.190;2023-09-19T01:39:11;19.80;99.90
10964;DHT22;5534;48.784;9.190;2023-09-19T01:45:02;19.60;99.90
10964;DHT22;5534;48.784;9.190;2023-09-19T01:47:35;19.60;99.90
10964;DHT22;5534;48.784;9.190;2023-09-19T01:50:06;19.60;99.90
10964;DHT22;5534;48.784;9.190;2023-09-19T01:52:42;19.70;99.90
10964;DHT22;5534;48.784;9.190;2023-09-19T01:55:11;19.70;99.90
10964;DHT22;5534;48.784;9.190;2023-09-19T01:57:58;19.80;99.90
10964;DHT22;5534;48.784;9.190;2023-09-19T02:00:27;19.70;99.90
10964;DHT22;5534;48.784;9.190;2023-09-19T02:02:56;19.70;99.90
10964;DHT22;5534;48.784;9.190;2023-09-19T02:05:25;19.70;99.90
10964;DHT22;5534;48.784;9.190;2023-09-19T02:07:52;19.70;99.90
10964;DHT22;5534;48.784;9.190;2023-09-19T02:10:19;19.70;99.90
10964;DHT22;5534;48.784;9.190;2023-09-19T02:12:45;19.60;99.90
10964;DHT22;5534;48.784;9.190;2023-09-19T02:15:11;19.60;99.90
10964;DHT22;5534;48.784;9.190;2023-09-19T02:17:36;19.60;99.90
10964;DHT22;5534;48.784;9.190;2023-09-19T02:20:03;19.50;99.90
10964;DHT22;5534;48.784;9.190;2023-09-19T02:22:37;19.60;99.90
10964;DHT22;5534;48.784;9.190;2023-09-19T02:25:04;19.70;99.90
10964;DHT22;5534;48.784;9.190;2023-09-19T02:27:29;19.80;99.90
10964;DHT22;5534;48.784;9.190;2023-09-19T02:29:56;19.80;99.90
10964;DHT22;5534;48.784;9.190;2023-09-19T02:32:22;19.90;99.90
10964;DHT22;5534;48.784;9.190;2023-09-19T02:34:48;19.80;99.90
10964;DHT22;5534;48.784;9.190;2023-09-19T02:37:14;19.60;99.90
10964;DHT22;5534;48.784;9.190;2023-09-19T02:39:42;19.70;99.90
10964;DHT22;5534;48.784;9.190;2023-09-19T02:42:08;19.70;99.90
10964;DHT22;5534;48.784;9.190;2023-09-19T02:44:36;19.60;99.90
10964;DHT22;5534;48.784;9.190;2023-09-19T02:47:04;19.50;99.90
10964;DHT22;5534;48.784;9.190;2023-09-19T02:49:29;19.50;99.90
10964;DHT22;5534;48.784;9.190;2023-09-19T02:51:55;19.60;99.90
10964;DHT22;5534;48.784;9.190;2023-09-19T02:54:21;19.60;99.90
10964;DHT22;5534;48.784;9.190;2023-09-19T02:56:47;19.70;99.90
10964;DHT22;5534;48.784;9.190;2023-09-19T02:59:13;19.60;99.90
10964;DHT22;5534;48.784;9.190;2023-09-19T03:01:40;19.60;99.90
10964;DHT22;5534;48.784;9.190;2023-09-19T03:04:08;19.70;99.90
10964;DHT22;5534;48.784;9.190;2023-09-19T03:06:37;19.60;99.90
10964;DHT22;5534;48.784;9.190;2023-09-19T03:09:04;19.60;99.90
10964;DHT22;5534;48.784;9.190;2023-09-19T03:11:39;19.70;99.90
10964;DHT22;5534;48.784;9.190;2023-09-19T03:14:06;19.70;99.90
10964;DHT22;5534;48.784;9.190;2023-09-19T03:16:32;19.70;99.90
10964;DHT22;5534;48.784;9.190;2023-09-19T03:18:59;19.70;99.90
10964;DHT22;5534;48.784;9.190;2023-09-19T03:21:25;19.70;99.90
10964;DHT22;5534;48.784;9.190;2023-09-19T03:23:51;19.70;99.90
10964;DHT22;5534;48.784;9.190;2023-09-19T03:26:17;19.80;99.90
10964;DHT22;5534;48.784;9.190;2023-09-19T03:28:43;19.70;99.90
10964;DHT22;5534;48.784;9.190;2023-09-19T03:31:09;19.70;99.90
10964;DHT22;5534;48.784;9.190;2023-09-19T03:33:35;19.70;99.90
10964;DHT22;5534;48.784;9.190;2023-09-19T03:36:02;19.70;99.90
10964;DHT22;5534;48.784;9.190;2023-09-19T03:38:30;19.80;99.90
10964;DHT22;5534;48.784;9.190;2023-09-19T03:40:57;19.80;99.90
10964;DHT22;5534;48.784;9.190;2023-09-19T03:43:22;19.80;99.90
10964;DHT22;5534;48.784;9.190;2023-09-19T03:45:48;19.60;99.90
10964;DHT22;5534;48.784;9.190;2023-09-19T03:48:14;19.70;99.90
10964;DHT22;5534;48.784;9.190;2023-09-19T03:50:40;19.80;99.90
10964;DHT22;5534;48.784;9.190;2023-09-19T03:53:06;19.80;99.90
10964;DHT22;5534;48.784;9.190;2023-09-19T03:55:34;19.80;99.90
10964;DHT22;5534;48.784;9.190;2023-09-19T03:58:04;19.80;99.90
10964;DHT22;5534;48.784;9.190;2023-09-19T04:00:29;19.70;99.90
10964;DHT22;5534;48.784;9.190;2023-09-19T04:02:55;19.70;99.90
10964;DHT22;5534;48.784;9.190;2023-09-19T04:05:25;19.80;99.90
10964;DHT22;5534;48.784;9.190;2023-09-19T04:07:55;19.70;99.90
10964;DHT22;5534;48.784;9.190;2023-09-19T04:10:21;19.70;99.90
10964;DHT22;5534;48.784;9.190;2023-09-19T04:12:53;19.80;99.90
10964;DHT22;5534;48.784;9.190;2023-09-19T04:15:20;19.90;99.90
10964;DHT22;5534;48.784;9.190;2023-09-19T04:17:50;19.90;99.90
10964;DHT22;5534;48.784;9.190;2023-09-19T04:20:20;19.80;99.90
10964;DHT22;5534;48.784;9.190;2023-09-19T04:22:48;19.80;99.90
10964;DHT22;5534;48.784;9.190;2023-09-19T04:25:13;19.80;99.90
10964;DHT22;5534;48.784;9.190;2023-09-19T04:27:39;19.50;99.90
10964;DHT22;5534;48.784;9.190;2023-09-19T04:30:07;19.50;99.90
10964;DHT22;5534;48.784;9.190;2023-09-19T04:32:40;19.40;99.90
10964;DHT22;5534;48.784;9.190;2023-09-19T04:35:10;19.50;99.90
10964;DHT22;5534;48.784;9.190;2023-09-19T04:37:38;19.40;99.90
10964;DHT22;5534;48.784;9.190;2023-09-19T04:40:07;19.50;99.90
10964;DHT22;5534;48.784;9.190;2023-09-19T04:42:38;19.50;99.90
10964;DHT22;5534;48.784;9.190;2023-09-19T04:45:04;19.60;99.90
10964;DHT22;5534;48.784;9.190;2023-09-19T04:47:30;19.40;99.90
10964;DHT22;5534;48.784;9.190;2023-09-19T04:49:56;19.40;99.90
10964;DHT22;5534;48.784;9.190;2023-09-19T04:52:24;19.60;99.90
10964;DHT22;5534;48.784;9.190;2023-09-19T04:54:50;19.40;99.90
10964;DHT22;5534;48.784;9.190;2023-09-19T04:57:15;19.40;99.90
10964;DHT22;5534;48.784;9.190;2023-09-19T04:59:41;19.40;99.90
10964;DHT22;5534;48.784;9.190;2023-09-19T05:02:07;19.40;99.90
10964;DHT22;5534;48.784;9.190;2023-09-19T05:04:37;19.30;99.90
10964;DHT22;5534;48.784;9.190;2023-09-19T05:07:04;19.30;99.90
10964;DHT22;5534;48.784;9.190;2023-09-19T05:09:29;19.20;99.90
10964;DHT22;5534;48.784;9.190;2023-09-19T05:11:55;19.30;99.90
10964;DHT22;5534;48.784;9.190;2023-09-19T05:14:22;19.20;99.90
10964;DHT22;5534;48.784;9.190;2023-09-19T05:16:48;19.10;99.90
10964;DHT22;5534;48.784;9.190;2023-09-19T05:19:14;19.10;99.90
10964;DHT22;5534;48.784;9.190;2023-09-19T05:21:40;19.00;99.90
10964;DHT22;5534;48.784;9.190;2023-09-19T05:24:06;18.90;99.90
10964;DHT22;5534;48.784;9.190;2023-09-19T05:26:32;19.00;99.90
10964;DHT22;5534;48.784;9.190;2023-09-19T05:28:58;19.20;99.90
10964;DHT22;5534;48.784;9.190;2023-09-19T05:31:25;19.20;99.90
10964;DHT22;5534;48.784;9.190;2023-09-19T05:33:51;19.20;99.90
10964;DHT22;5534;48.784;9.190;2023-09-19T05:36:18;19.30;99.90
10964;DHT22;5534;48.784;9.190;2023-09-19T05:38:43;19.10;99.90
10964;DHT22;5534;48.784;9.190;2023-09-19T05:41:10;19.00;99.90
10964;DHT22;5534;48.784;9.190;2023-09-19T05:43:39;19.10;99.90
10964;DHT22;5534;48.784;9.190;2023-09-19T05:46:07;19.10;99.90
10964;DHT22;5534;48.784;9.190;2023-09-19T05:48:33;19.00;99.90
10964;DHT22;5534;48.784;9.190;2023-09-19T05:51:01;18.80;99.90
10964;DHT22;5534;48.784;9.190;2023-09-19T05:53:27;18.80;99.90
10964;DHT22;5534;48.784;9.190;2023-09-19T05:55:52;18.60;99.90
10964;DHT22;5534;48.784;9.190;2023-09-19T05:58:19;18.50;99.90
10964;DHT22;5534;48.784;9.190;2023-09-19T06:00:45;18.50;99.90
10964;DHT22;5534;48.784;9.190;2023-09-19T06:03:13;18.20;99.90
10964;DHT22;5534;48.784;9.190;2023-09-19T06:05:40;18.20;99.90
10964;DHT22;5534;48.784;9.190;2023-09-19T06:08:08;18.30;99.90
10964;DHT22;5534;48.784;9.190;2023-09-19T06:10:35;18.60;99.90
10964;DHT22;5534;48.784;9.190;2023-09-19T06:13:04;18.60;99.90
10964;DHT22;5534;48.784;9.190;2023-09-19T06:15:31;18.70;99.90
10964;DHT22;5534;48.784;9.190;2023-09-19T06:17:59;18.60;99.90
10964;DHT22;5534;48.784;9.190;2023-09-19T06:20:26;18.60;99.90
10964;DHT22;5534;48.784;9.190;2023-09-19T06:22:52;18.50;99.90
10964;DHT22;5534;48.784;9.190;2023-09-19T06:25:21;18.60;99.90
10964;DHT22;5534;48.784;9.190;2023-09-19T06:27:51;18.50;99.90
10964;DHT22;5534;48.784;9.190;2023-09-19T06:30:19;18.60;99.90
10964;DHT22;5534;48.784;9.190;2023-09-19T06:32:45;18.60;99.90
10964;DHT22;5534;48.784;9.190;2023-09-19T06:35:12;18.70;99.90
10964;DHT22;5534;48.784;9.190;2023-09-19T06:37:38;18.70;99.90
10964;DHT22;5534;48.784;9.190;2023-09-19T06:40:07;18.70;99.90
10964;DHT22;5534;48.784;9.190;2023-09-19T06:42:34;18.80;99.90
10964;DHT22;5534;48.784;9.190;2023-09-19T06:45:04;18.90;99.90
10964;DHT22;5534;48.784;9.190;2023-09-19T06:47:31;19.00;99.90
10964;DHT22;5534;48.784;9.190;2023-09-19T06:49:56;19.10;99.90
10964;DHT22;5534;48.784;9.190;2023-09-19T06:52:22;19.00;99.90
10964;DHT22;5534;48.784;9.190;2023-09-19T06:54:51;18.90;99.90
10964;DHT22;5534;48.784;9.190;2023-09-19T06:57:18;19.30;99.90
10964;DHT22;5534;48.784;9.190;2023-09-19T06:59:45;19.30;99.90
10964;DHT22;5534;48.784;9.190;2023-09-19T07:02:11;19.20;99.90
10964;DHT22;5534;48.784;9.190;2023-09-19T07:04:38;19.30;99.90
10964;DHT22;5534;48.784;9.190;2023-09-19T07:07:04;19.40;99.90
10964;DHT22;5534;48.784;9.190;2023-09-19T07:09:29;19.40;99.90
10964;DHT22;5534;48.784;9.190;2023-09-19T07:11:55;19.30;99.90
10964;DHT22;5534;48.784;9.190;2023-09-19T07:14:21;19.40;99.90
10964;DHT22;5534;48.784;9.190;2023-09-19T07:16:48;19.40;99.90
10964;DHT22;5534;48.784;9.190;2023-09-19T07:19:15;19.40;99.90
10964;DHT22;5534;48.784;9.190;2023-09-19T07:21:41;19.50;99.90
10964;DHT22;5534;48.784;9.190;2023-09-19T07:24:08;19.60;99.90
10964;DHT22;5534;48.784;9.190;2023-09-19T07:26:33;19.70;99.90
10964;DHT22;5534;48.784;9.190;2023-09-19T07:28:59;19.70;99.90
10964;DHT22;5534;48.784;9.190;2023-09-19T07:31:28;19.60;99.90
10964;DHT22;5534;48.784;9.190;2023-09-19T07:33:54;19.20;99.90
10964;DHT22;5534;48.784;9.190;2023-09-19T07:36:19;19.50;99.90
10964;DHT22;5534;48.784;9.190;2023-09-19T07:38:45;19.60;99.90
10964;DHT22;5534;48.784;9.190;2023-09-19T07:41:11;19.70;99.90
10964;DHT22;5534;48.784;9.190;2023-09-19T07:43:37;19.80;99.90
10964;DHT22;5534;48.784;9.190;2023-09-19T07:46:06;19.80;99.90
10964;DHT22;5534;48.784;9.190;2023-09-19T07:48:33;19.90;99.90
10964;DHT22;5534;48.784;9.190;2023-09-19T07:51:06;19.90;99.90
10964;DHT22;5534;48.784;9.190;2023-09-19T07:53:34;19.90;99.90
10964;DHT22;5534;48.784;9.190;2023-09-19T07:56:04;19.90;99.90
10964;DHT22;5534;48.784;9.190;2023-09-19T07:58:30;19.90;99.90
10964;DHT22;5534;48.784;9.190;2023-09-19T08:01:02;19.90;99.90
10964;DHT22;5534;48.784;9.190;2023-09-19T08:03:27;19.90;99.90
10964;DHT22;5534;48.784;9.190;2023-09-19T08:05:53;19.80;99.90
10964;DHT22;5534;48.784;9.190;2023-09-19T08:08:21;19.70;99.90
10964;DHT22;5534;48.784;9.190;2023-09-19T08:11:01;19.80;99.90
10964;DHT22;5534;48.784;9.190;2023-09-19T08:13:27;19.70;99.90
10964;DHT22;5534;48.784;9.190;2023-09-19T08:15:52;20.00;99.90
10964;DHT22;5534;48.784;9.190;2023-09-19T08:18:18;20.20;99.90
10964;DHT22;5534;48.784;9.190;2023-09-19T08:20:50;20.40;99.90
10964;DHT22;5534;48.784;9.190;2023-09-19T08:23:16;20.40;99.90
10964;DHT22;5534;48.784;9.190;2023-09-19T08:25:43;20.50;99.90
10964;DHT22;5534;48.784;9.190;2023-09-19T08:28:09;20.60;99.90
10964;DHT22;5534;48.784;9.190;2023-09-19T08:30:38;20.70;99.90
10964;DHT22;5534;48.784;9.190;2023-09-19T08:33:06;20.90;99.90
10964;DHT22;5534;48.784;9.190;2023-09-19T08:35:33;21.00;99.90
10964;DHT22;5534;48.784;9.190;2023-09-19T08:37:59;21.10;99.90
10964;DHT22;5534;48.784;9.190;2023-09-19T08:40:32;21.30;99.90
10964;DHT22;5534;48.784;9.190;2023-09-19T08:43:01;21.30;99.90
10964;DHT22;5534;48.784;9.190;2023-09-19T08:45:27;21.30;99.90
10964;DHT22;5534;48.784;9.190;2023-09-19T08:50:42;21.30;99.90
10964;DHT22;5534;48.784;9.190;2023-09-19T08:53:11;21.30;99.90
10964;DHT22;5534;48.784;9.190;2023-09-19T08:55:41;21.10;99.90
10964;DHT22;5534;48.784;9.190;2023-09-19T08:58:13;21.00;99.90
10964;DHT22;5534;48.784;9.190;2023-09-19T09:00:45;21.00;99.90
10964;DHT22;5534;48.784;9.190;2023-09-19T09:03:13;21.00;99.90
10964;DHT22;5534;48.784;9.190;2023-09-19T09:05:41;21.30;99.90
10964;DHT22;5534;48.784;9.190;2023-09-19T09:08:10;21.30;99.90
10964;DHT22;5534;48.784;9.190;2023-09-19T09:10:37;21.50;99.90
10964;DHT22;5534;48.784;9.190;2023-09-19T09:13:03;21.60;99.90
10964;DHT22;5534;48.784;9.190;2023-09-19T09:15:35;21.90;99.90
10964;DHT22;5534;48.784;9.190;2023-09-19T09:18:02;22.00;99.90
10964;DHT22;5534;48.784;9.190;2023-09-19T09:20:30;21.90;99.90
10964;DHT22;5534;48.784;9.190;2023-09-19T09:22:56;22.00;99.90
10964;DHT22;5534;48.784;9.190;2023-09-19T09:25:50;21.90;99.90
10964;DHT22;5534;48.784;9.190;2023-09-19T09:28:28;21.90;99.90
10964;DHT22;5534;48.784;9.190;2023-09-19T09:30:58;22.00;99.90
10964;DHT22;5534;48.784;9.190;2023-09-19T09:33:24;22.10;99.90
10964;DHT22;5534;48.784;9.190;2023-09-19T09:35:51;22.20;99.90
10964;DHT22;5534;48.784;9.190;2023-09-19T09:38:44;22.30;99.90
10964;DHT22;5534;48.784;9.190;2023-09-19T09:41:11;22.30;99.90
10964;DHT22;5534;48.784;9.190;2023-09-19T09:43:41;22.00;99.90
10964;DHT22;5534;48.784;9.190;2023-09-19T09:46:16;22.10;99.90
10964;DHT22;5534;48.784;9.190;2023-09-19T09:51:43;22.40;99.90
10964;DHT22;5534;48.784;9.190;2023-09-19T09:56:59;22.50;99.90
10964;DHT22;5534;48.784;9.190;2023-09-19T09:59:44;22.50;99.90
10964;DHT22;5534;48.784;9.190;2023-09-19T10:02:39;22.40;99.90
10964;DHT22;5534;48.784;9.190;2023-09-19T10:05:14;22.20;99.90
10964;DHT22;5534;48.784;9.190;2023-09-19T10:07:50;22.10;99.90
10964;DHT22;5534;48.784;9.190;2023-09-19T10:13:09;22.20;99.90
10964;DHT22;5534;48.784;9.190;2023-09-19T10:15:43;22.40;99.90
10964;DHT22;5534;48.784;9.190;2023-09-19T10:18:21;22.40;99.90
10964;DHT22;5534;48.784;9.190;2023-09-19T10:20:47;22.40;99.90
10964;DHT22;5534;48.784;9.190;2023-09-19T10:23:20;22.20;99.90
10964;DHT22;5534;48.784;9.190;2023-09-19T10:25:49;22.10;99.90
10964;DHT22;5534;48.784;9.190;2023-09-19T10:28:16;22.00;99.90
10964;DHT22;5534;48.784;9.190;2023-09-19T10:30:49;21.90;99.90
10964;DHT22;5534;48.784;9.190;2023-09-19T10:33:17;21.70;99.90
10964;DHT22;5534;48.784;9.190;2023-09-19T10:35:46;21.70;99.90
10964;DHT22;5534;48.784;9.190;2023-09-19T10:38:14;21.80;99.90
10964;DHT22;5534;48.784;9.190;2023-09-19T10:40:40;22.00;99.90
10964;DHT22;5534;48.784;9.190;2023-09-19T10:43:16;22.00;99.90
10964;DHT22;5534;48.784;9.190;2023-09-19T10:45:49;21.90;99.90
10964;DHT22;5534;48.784;9.190;2023-09-19T10:48:18;21.80;99.90
10964;DHT22;5534;48.784;9.190;2023-09-19T10:51:18;21.90;99.90
10964;DHT22;5534;48.784;9.190;2023-09-19T10:53:56;21.90;99.90
10964;DHT22;5534;48.784;9.190;2023-09-19T10:56:37;21.80;99.90
10964;DHT22;5534;48.784;9.190;2023-09-19T10:59:18;22.00;99.90
10964;DHT22;5534;48.784;9.190;2023-09-19T11:01:51;22.10;99.90
10964;DHT22;5534;48.784;9.190;2023-09-19T11:07:12;22.20;99.90
10964;DHT22;5534;48.784;9.190;2023-09-19T11:09:51;22.30;99.90
10964;DHT22;5534;48.784;9.190;2023-09-19T11:14:55;22.00;99.90
10964;DHT22;5534;48.784;9.190;2023-09-19T11:17:30;22.00;99.90
10964;DHT22;5534;48.784;9.190;2023-09-19T11:30:51;22.10;99.90
10964;DHT22;5534;48.784;9.190;2023-09-19T11:33:24;22.20;99.90
10964;DHT22;5534;48.784;9.190;2023-09-19T11:36:09;22.00;99.90
10964;DHT22;5534;48.784;9.190;2023-09-19T11:43:51;22.50;99.90
10964;DHT22;5534;48.784;9.190;2023-09-19T11:46:20;22.40;99.90
10964;DHT22;5534;48.784;9.190;2023-09-19T11:48:50;22.30;99.90
10964;DHT22;5534;48.784;9.190;2023-09-19T11:51:23;22.50;99.90
10964;DHT22;5534;48.784;9.190;2023-09-19T11:53:54;22.40;99.90
10964;DHT22;5534;48.784;9.190;2023-09-19T11:56:22;22.60;99.90
10964;DHT22;5534;48.784;9.190;2023-09-19T11:58:51;22.60;99.90
10964;DHT22;5534;48.784;9.190;2023-09-19T12:01:25;22.90;99.90
10964;DHT22;5534;48.784;9.190;2023-09-19T12:03:56;22.80;99.90
10964;DHT22;5534;48.784;9.190;2023-09-19T12:06:24;22.80;99.90
10964;DHT22;5534;48.784;9.190;2023-09-19T12:08:51;22.90;99.90
10964;DHT22;5534;48.784;9.190;2023-09-19T12:11:21;22.80;99.90
10964;DHT22;5534;48.784;9.190;2023-09-19T12:13:47;22.70;99.90
10964;DHT22;5534;48.784;9.190;2023-09-19T12:16:18;22.90;99.90
10964;DHT22;5534;48.784;9.190;2023-09-19T12:18:48;22.80;99.90
10964;DHT22;5534;48.784;9.190;2023-09-19T12:21:31;22.90;99.90
10964;DHT22;5534;48.784;9.190;2023-09-19T12:24:12;23.00;99.90
10964;DHT22;5534;48.784;9.190;2023-09-19T12:26:46;23.10;99.90
10964;DHT22;5534;48.784;9.190;2023-09-19T12:29:21;23.10;99.90
10964;DHT22;5534;48.784;9.190;2023-09-19T12:31:55;23.10;99.90
10964;DHT22;5534;48.784;9.190;2023-09-19T12:34:28;23.20;99.90
10964;DHT22;5534;48.784;9.190;2023-09-19T12:37:11;23.10;99.90
10964;DHT22;5534;48.784;9.190;2023-09-19T12:39:42;23.00;99.90
10964;DHT22;5534;48.784;9.190;2023-09-19T12:42:10;22.80;99.90
10964;DHT22;5534;48.784;9.190;2023-09-19T12:44:44;22.90;99.90
10964;DHT22;5534;48.784;9.190;2023-09-19T12:47:16;23.00;99.90
10964;DHT22;5534;48.784;9.190;2023-09-19T12:50:14;23.20;99.90
10964;DHT22;5534;48.784;9.190;2023-09-19T12:52:50;23.10;99.90
10964;DHT22;5534;48.784;9.190;2023-09-19T12:55:26;23.20;99.90
10964;DHT22;5534;48.784;9.190;2023-09-19T12:58:07;23.10;99.90
10964;DHT22;5534;48.784;9.190;2023-09-19T13:00:35;23.20;99.90
10964;DHT22;5534;48.784;9.190;2023-09-19T13:05:52;23.30;99.90
10964;DHT22;5534;48.784;9.190;2023-09-19T13:08:24;23.20;99.90
10964;DHT22;5534;48.784;9.190;2023-09-19T13:13:51;23.10;99.90
10964;DHT22;5534;48.784;9.190;2023-09-19T13:16:21;23.10;99.90
10964;DHT22;5534;48.784;9.190;2023-09-19T13:18:50;22.90;99.90
10964;DHT22;5534;48.784;9.190;2023-09-19T13:21:39;22.90;99.90
10964;DHT22;5534;48.784;9.190;2023-09-19T13:24:23;23.00;99.90
10964;DHT22;5534;48.784;9.190;2023-09-19T13:26:51;23.00;99.90
10964;DHT22;5534;48.784;9.190;2023-09-19T13:29:17;23.20;99.90
10964;DHT22;5534;48.784;9.190;2023-09-19T13:31:51;23.30;99.90
10964;DHT22;5534;48.784;9.190;2023-09-19T13:34:19;23.30;99.90
10964;DHT22;5534;48.784;9.190;2023-09-19T13:36:46;23.40;99.90
10964;DHT22;5534;48.784;9.190;2023-09-19T13:39:17;23.50;99.90
10964;DHT22;5534;48.784;9.190;2023-09-19T13:41:49;23.40;99.90
10964;DHT22;5534;48.784;9.190;2023-09-19T13:44:18;23.20;99.90
10964;DHT22;5534;48.784;9.190;2023-09-19T13:46:45;23.20;99.90
10964;DHT22;5534;48.784;9.190;2023-09-19T13:49:12;23.20;99.90
10964;DHT22;5534;48.784;9.190;2023-09-19T13:51:37;23.30;99.90
10964;DHT22;5534;48.784;9.190;2023-09-19T13:54:03;23.40;99.90
10964;DHT22;5534;48.784;9.190;2023-09-19T13:56:29;23.30;99.90
10964;DHT22;5534;48.784;9.190;2023-09-19T13:58:56;23.40;99.90
10964;DHT22;5534;48.784;9.190;2023-09-19T14:01:23;23.50;99.90
10964;DHT22;5534;48.784;9.190;2023-09-19T14:03:49;23.60;99.90
10964;DHT22;5534;48.784;9.190;2023-09-19T14:06:17;23.60;99.90
10964;DHT22;5534;48.784;9.190;2023-09-19T14:08:44;23.70;99.90
10964;DHT22;5534;48.784;9.190;2023-09-19T14:11:14;23.60;99.90
10964;DHT22;5534;48.784;9.190;2023-09-19T14:13:40;23.50;99.90
10964;DHT22;5534;48.784;9.190;2023-09-19T14:16:07;23.30;99.90
10964;DHT22;5534;48.784;9.190;2023-09-19T14:18:34;23.20;99.90
10964;DHT22;5534;48.784;9.190;2023-09-19T14:21:04;23.20;99.90
10964;DHT22;5534;48.784;9.190;2023-09-19T14:23:37;23.20;99.90
10964;DHT22;5534;48.784;9.190;2023-09-19T14:26:04;23.10;99.90
10964;DHT22;5534;48.784;9.190;2023-09-19T14:28:31;23.00;99.90
10964;DHT22;5534;48.784;9.190;2023-09-19T14:31:07;23.00;99.90
10964;DHT22;5534;48.784;9.190;2023-09-19T14:33:33;23.10;99.90
10964;DHT22;5534;48.784;9.190;2023-09-19T14:36:05;23.10;99.90
10964;DHT22;5534;48.784;9.190;2023-09-19T14:38:33;23.10;99.90
10964;DHT22;5534;48.784;9.190;2023-09-19T14:41:03;23.10;99.90
10964;DHT22;5534;48.784;9.190;2023-09-19T14:43:30;23.10;99.90
10964;DHT22;5534;48.784;9.190;2023-09-19T14:45:56;23.20;99.90
10964;DHT22;5534;48.784;9.190;2023-09-19T14:48:23;23.20;99.90
10964;DHT22;5534;48.784;9.190;2023-09-19T14:50:52;23.20;99.90
10964;DHT22;5534;48.784;9.190;2023-09-19T14:53:18;23.20;99.90
10964;DHT22;5534;48.784;9.190;2023-09-19T14:55:44;23.30;99.90
10964;DHT22;5534;48.784;9.190;2023-09-19T14:58:11;23.30;99.90
10964;DHT22;5534;48.784;9.190;2023-09-19T15:00:38;23.30;99.90
10964;DHT22;5534;48.784;9.190;2023-09-19T15:03:04;23.30;99.90
10964;DHT22;5534;48.784;9.190;2023-09-19T15:05:30;23.30;99.90
10964;DHT22;5534;48.784;9.190;2023-09-19T15:07:56;23.40;99.90
10964;DHT22;5534;48.784;9.190;2023-09-19T15:10:23;23.50;99.90
10964;DHT22;5534;48.784;9.190;2023-09-19T15:12:49;23.40;99.90
10964;DHT22;5534;48.784;9.190;2023-09-19T15:15:14;23.30;99.90
10964;DHT22;5534;48.784;9.190;2023-09-19T15:17:40;23.20;99.90
10964;DHT22;5534;48.784;9.190;2023-09-19T15:20:07;23.20;99.90
10964;DHT22;5534;48.784;9.190;2023-09-19T15:22:33;23.20;99.90
10964;DHT22;5534;48.784;9.190;2023-09-19T15:25:01;23.10;99.90
10964;DHT22;5534;48.784;9.190;2023-09-19T15:27:28;23.00;99.90
10964;DHT22;5534;48.784;9.190;2023-09-19T15:29:57;23.00;99.90
10964;DHT22;5534;48.784;9.190;2023-09-19T15:32:24;23.00;99.90
10964;DHT22;5534;48.784;9.190;2023-09-19T15:34:50;23.10;99.90
10964;DHT22;5534;48.784;9.190;2023-09-19T15:37:16;23.00;99.90
10964;DHT22;5534;48.784;9.190;2023-09-19T15:39:42;23.00;99.90
10964;DHT22;5534;48.784;9.190;2023-09-19T15:42:10;23.00;99.90
10964;DHT22;5534;48.784;9.190;2023-09-19T15:44:36;23.10;99.90
10964;DHT22;5534;48.784;9.190;2023-09-19T15:47:03;23.20;99.90
10964;DHT22;5534;48.784;9.190;2023-09-19T15:49:29;23.10;99.90
10964;DHT22;5534;48.784;9.190;2023-09-19T15:51:55;23.20;99.90
10964;DHT22;5534;48.784;9.190;2023-09-19T15:54:21;23.10;99.90
10964;DHT22;5534;48.784;9.190;2023-09-19T15:56:47;23.10;99.90
10964;DHT22;5534;48.784;9.190;2023-09-19T15:59:14;23.10;99.90
10964;DHT22;5534;48.784;9.190;2023-09-19T16:01:44;23.20;99.90
10964;DHT22;5534;48.784;9.190;2023-09-19T16:04:10;23.00;99.90
10964;DHT22;5534;48.784;9.190;2023-09-19T16:06:37;23.00;99.90
10964;DHT22;5534;48.784;9.190;2023-09-19T16:09:04;22.90;99.90
10964;DHT22;5534;48.784;9.190;2023-09-19T16:11:33;22.90;99.90
10964;DHT22;5534;48.784;9.190;2023-09-19T16:13:59;23.00;99.90
10964;DHT22;5534;48.784;9.190;2023-09-19T16:16:26;22.90;99.90
10964;DHT22;5534;48.784;9.190;2023-09-19T16:18:57;22.80;99.90
10964;DHT22;5534;48.784;9.190;2023-09-19T16:21:25;22.90;99.90
10964;DHT22;5534;48.784;9.190;2023-09-19T16:23:55;22.80;99.90
10964;DHT22;5534;48.784;9.190;2023-09-19T16:26:22;22.80;99.90
10964;DHT22;5534;48.784;9.190;2023-09-19T16:28:53;22.80;99.90
10964;DHT22;5534;48.784;9.190;2023-09-19T16:31:20;22.70;99.90
10964;DHT22;5534;48.784;9.190;2023-09-19T16:33:47;22.70;99.90
10964;DHT22;5534;48.784;9.190;2023-09-19T16:36:18;22.70;99.90
10964;DHT22;5534;48.784;9.190;2023-09-19T16:38:45;22.60;99.90
10964;DHT22;5534;48.784;9.190;2023-09-19T16:41:11;22.70;99.90
10964;DHT22;5534;48.784;9.190;2023-09-19T16:43:39;22.60;99.90